Time;durP1;ratioP1;P1;durP2;ratioP2;P2;SDS_P1;SDS_P2;PMS_P1;PMS_P2;Temp;Humidity;BMP_temperature;BMP_pressure;BME280_temperature;BME280_humidity;BME280_pressure;Samples;Min_cycle;Max_cycle;Signal;HPM_P1;HPM_P2
2023/09/07 00:00:05;;;;;;;3.72;1.90;;;;;;;;;;10412334;28;20030;-46
2023/09/07 00:05:07;;;;;;;2.83;2.08;;;;;;;;;;10410003;28;20397;-46
2023/09/07 00:10:08;;;;;;;3.72;2.03;;;;;;;;;;10411161;28;20056;-45
2023/09/07 00:15:10;;;;;;;2.88;1.92;;;;;;;;;;10411843;28;20033;-44
2023/09/07 00:20:11;;;;;;;3.70;1.92;;;;;;;;;;10409356;28;20039;-45
2023/09/07 00:25:11;;;;;;;7.32;2.13;;;;;;;;;;10411612;28;20481;-46
2023/09/07 00:30:12;;;;;;;2.30;1.83;;;;;;;;;;10411507;28;20025;-45
2023/09/07 00:35:13;;;;;;;2.42;1.80;;;;;;;;;;10406816;28;20041;-44
2023/09/07 00:40:13;;;;;;;5.35;2.05;;;;;;;;;;10410662;28;20033;-47
2023/09/07 00:45:15;;;;;;;2.38;1.80;;;;;;;;;;10404827;28;20409;-45
2023/09/07 00:50:16;;;;;;;2.70;1.77;;;;;;;;;;10410502;28;20040;-45
2023/09/07 00:55:17;;;;;;;1.88;1.70;;;;;;;;;;10410384;28;20033;-46
2023/09/07 01:00:17;;;;;;;3.78;1.88;;;;;;;;;;10402697;28;20061;-50
2023/09/07 01:05:24;;;;;;;2.13;1.80;;;;;;;;;;10409739;28;20029;-53
2023/09/07 01:10:25;;;;;;;1.60;1.50;;;;;;;;;;10406841;28;20126;-45
2023/09/07 01:15:25;;;;;;;5.10;2.75;;;;;;;;;;10408566;28;20508;-45
2023/09/07 01:20:27;;;;;;;2.22;1.88;;;;;;;;;;10407381;28;20025;-45
2023/09/07 01:25:28;;;;;;;3.60;1.67;;;;;;;;;;10398646;28;20030;-50
2023/09/07 01:30:28;;;;;;;2.13;1.73;;;;;;;;;;10407743;28;20489;-45
2023/09/07 01:35:31;;;;;;;6.25;1.88;;;;;;;;;;10406752;28;20040;-48
2023/09/07 01:40:32;;;;;;;5.68;1.95;;;;;;;;;;10401715;28;20480;-45
2023/09/07 01:45:33;;;;;;;2.20;2.00;;;;;;;;;;10407286;28;20042;-45
2023/09/07 01:50:33;;;;;;;2.67;2.15;;;;;;;;;;10400215;28;20029;-45
2023/09/07 01:55:34;;;;;;;2.22;2.03;;;;;;;;;;10406400;28;20033;-44
2023/09/07 02:00:38;;;;;;;3.05;1.98;;;;;;;;;;10405354;28;20029;-45
2023/09/07 02:05:39;;;;;;;2.20;1.80;;;;;;;;;;10395671;28;20064;-45
2023/09/07 02:10:39;;;;;;;2.85;2.03;;;;;;;;;;10406173;28;20157;-45
2023/09/07 02:15:40;;;;;;;3.78;1.73;;;;;;;;;;10406159;28;20033;-46
2023/09/07 02:20:41;;;;;;;2.75;2.00;;;;;;;;;;10407963;28;20083;-45
2023/09/07 02:25:42;;;;;;;2.85;1.77;;;;;;;;;;10405372;28;20477;-52
2023/09/07 02:30:42;;;;;;;3.97;2.15;;;;;;;;;;10402414;28;20492;-45
2023/09/07 02:35:43;;;;;;;5.55;2.30;;;;;;;;;;10406494;28;20504;-45
2023/09/07 02:40:44;;;;;;;5.72;3.30;;;;;;;;;;10406764;28;20485;-45
2023/09/07 02:45:44;;;;;;;2.70;2.03;;;;;;;;;;10396134;28;20050;-46
2023/09/07 02:50:48;;;;;;;3.03;2.03;;;;;;;;;;10405379;28;20469;-46
2023/09/07 02:55:49;;;;;;;3.28;2.03;;;;;;;;;;10405443;28;20165;-46
2023/09/07 03:00:49;;;;;;;2.55;1.90;;;;;;;;;;10403273;28;20609;-46
2023/09/07 03:05:50;;;;;;;3.92;1.77;;;;;;;;;;10405837;28;20480;-46
2023/09/07 03:10:51;;;;;;;4.15;2.00;;;;;;;;;;10404750;28;20400;-47
2023/09/07 03:15:53;;;;;;;3.28;1.90;;;;;;;;;;10414689;28;20422;-46
2023/09/07 03:20:57;;;;;;;2.05;1.83;;;;;;;;;;10389467;28;20112;-48
2023/09/07 03:25:59;;;;;;;3.08;1.65;;;;;;;;;;10413761;28;20025;-46
2023/09/07 03:30:59;;;;;;;3.50;1.77;;;;;;;;;;10405316;28;20496;-45
2023/09/07 03:36:00;;;;;;;1.90;1.70;;;;;;;;;;10412384;28;20036;-47
2023/09/07 03:41:01;;;;;;;2.25;1.80;;;;;;;;;;10413405;28;20030;-49
2023/09/07 03:46:01;;;;;;;3.35;2.25;;;;;;;;;;10401272;28;20037;-47
2023/09/07 03:51:06;;;;;;;4.28;2.15;;;;;;;;;;10411727;28;20071;-48
2023/09/07 03:56:07;;;;;;;2.83;1.73;;;;;;;;;;10412323;28;20025;-48
2023/09/07 04:01:07;;;;;;;2.35;2.10;;;;;;;;;;10410643;28;20026;-47
2023/09/07 04:06:08;;;;;;;3.05;1.77;;;;;;;;;;10409407;28;20025;-49
2023/09/07 04:11:08;;;;;;;1.92;1.80;;;;;;;;;;10410867;28;20029;-47
2023/09/07 04:16:10;;;;;;;1.85;1.75;;;;;;;;;;10411357;28;20025;-48
2023/09/07 04:21:10;;;;;;;2.28;2.08;;;;;;;;;;10409698;28;20488;-46
2023/09/07 04:26:11;;;;;;;5.55;2.17;;;;;;;;;;10408652;28;20029;-47
2023/09/07 04:31:12;;;;;;;4.00;2.03;;;;;;;;;;10401000;28;20068;-47
2023/09/07 04:36:14;;;;;;;2.28;1.80;;;;;;;;;;10409661;28;20030;-46
2023/09/07 04:41:15;;;;;;;2.50;2.08;;;;;;;;;;10410362;28;20030;-46
2023/09/07 04:46:16;;;;;;;3.88;1.90;;;;;;;;;;10408878;28;20046;-47
2023/09/07 04:51:17;;;;;;;3.22;2.25;;;;;;;;;;10409907;28;20034;-46
2023/09/07 04:56:18;;;;;;;4.38;2.33;;;;;;;;;;10407382;28;20030;-46
2023/09/07 05:01:18;;;;;;;3.10;2.25;;;;;;;;;;10406203;28;20492;-46
2023/09/07 05:06:19;;;;;;;2.20;2.00;;;;;;;;;;10409764;28;20376;-47
2023/09/07 05:11:19;;;;;;;2.88;2.15;;;;;;;;;;10406273;28;20634;-48
2023/09/07 05:16:20;;;;;;;5.82;2.50;;;;;;;;;;10407025;28;20033;-49
2023/09/07 05:21:20;;;;;;;6.82;2.50;;;;;;;;;;10412161;28;20611;-47
2023/09/07 05:26:23;;;;;;;5.18;2.53;;;;;;;;;;10408025;28;20026;-47
2023/09/07 05:31:24;;;;;;;4.22;2.03;;;;;;;;;;10402110;28;20489;-57
2023/09/07 05:36:26;;;;;;;4.85;2.10;;;;;;;;;;10405968;28;20036;-57
2023/09/07 05:41:27;;;;;;;6.65;2.47;;;;;;;;;;10392007;28;20033;-56
2023/09/07 05:46:28;;;;;;;5.15;2.65;;;;;;;;;;10388939;28;20452;-56
2023/09/07 05:51:28;;;;;;;6.00;2.10;;;;;;;;;;10402631;28;20029;-56
2023/09/07 05:56:30;;;;;;;4.22;2.60;;;;;;;;;;10406057;28;20038;-55
2023/09/07 06:01:31;;;;;;;7.72;2.25;;;;;;;;;;10401795;28;20120;-50
2023/09/07 06:06:32;;;;;;;8.90;2.30;;;;;;;;;;10397109;28;20029;-45
2023/09/07 06:11:34;;;;;;;7.22;2.65;;;;;;;;;;10403692;28;20029;-46
2023/09/07 06:16:35;;;;;;;9.32;2.53;;;;;;;;;;10406900;28;20056;-46
2023/09/07 06:21:35;;;;;;;5.28;2.80;;;;;;;;;;10407018;28;20038;-45
2023/09/07 06:26:36;;;;;;;7.80;2.53;;;;;;;;;;10406045;28;20459;-45
2023/09/07 06:31:36;;;;;;;6.63;2.53;;;;;;;;;;10407190;28;20384;-45
2023/09/07 06:36:37;;;;;;;8.15;2.58;;;;;;;;;;10405681;28;20025;-45
2023/09/07 06:41:37;;;;;;;10.30;2.60;;;;;;;;;;10405957;28;20025;-46
2023/09/07 06:46:38;;;;;;;9.90;2.97;;;;;;;;;;10405517;28;20042;-45
2023/09/07 06:51:38;;;;;;;5.95;2.85;;;;;;;;;;10405999;28;20029;-45
2023/09/07 06:56:39;;;;;;;4.13;2.65;;;;;;;;;;10406330;28;20029;-57
2023/09/07 07:01:40;;;;;;;10.65;2.60;;;;;;;;;;10405634;28;20030;-49
2023/09/07 07:06:40;;;;;;;4.53;2.63;;;;;;;;;;10405877;28;20053;-47
2023/09/07 07:11:42;;;;;;;6.15;2.42;;;;;;;;;;10405113;28;20428;-46
2023/09/07 07:16:43;;;;;;;7.32;2.53;;;;;;;;;;10403884;28;20032;-46
2023/09/07 07:21:44;;;;;;;6.03;2.42;;;;;;;;;;10404151;28;20040;-53
2023/09/07 07:26:46;;;;;;;4.60;2.55;;;;;;;;;;10403037;28;20389;-46
2023/09/07 07:31:46;;;;;;;7.72;2.90;;;;;;;;;;10404789;28;20104;-46
2023/09/07 07:36:47;;;;;;;2.85;2.50;;;;;;;;;;10403406;28;20104;-51
2023/09/07 07:41:48;;;;;;;3.53;2.65;;;;;;;;;;10404453;28;20029;-46
2023/09/07 07:46:48;;;;;;;5.15;2.60;;;;;;;;;;10404191;28;20038;-46
2023/09/07 07:51:49;;;;;;;9.32;2.90;;;;;;;;;;10403844;28;20481;-45
2023/09/07 07:56:50;;;;;;;8.55;2.70;;;;;;;;;;10403867;28;20516;-46
2023/09/07 08:01:50;;;;;;;4.43;2.28;;;;;;;;;;10409931;28;20043;-46
2023/09/07 08:06:54;;;;;;;5.60;2.53;;;;;;;;;;10412425;28;20083;-45
2023/09/07 08:11:55;;;;;;;6.85;2.22;;;;;;;;;;10409578;28;20030;-47
2023/09/07 08:16:57;;;;;;;4.20;2.90;;;;;;;;;;10410532;28;20034;-46
2023/09/07 08:21:58;;;;;;;4.25;2.33;;;;;;;;;;10409514;28;20427;-46
2023/09/07 08:27:00;;;;;;;4.93;2.30;;;;;;;;;;10410303;28;20091;-55
2023/09/07 08:32:03;;;;;;;2.92;2.50;;;;;;;;;;10409832;28;20033;-54
2023/09/07 08:37:06;;;;;;;6.10;2.22;;;;;;;;;;10410309;28;20108;-49
2023/09/07 08:42:07;;;;;;;3.83;2.53;;;;;;;;;;10408662;28;20048;-58
2023/09/07 08:47:08;;;;;;;4.90;2.63;;;;;;;;;;10408789;28;20087;-53
2023/09/07 08:52:09;;;;;;;5.15;2.78;;;;;;;;;;10408671;28;20207;-54
2023/09/07 08:57:11;;;;;;;7.93;2.80;;;;;;;;;;10408950;28;20029;-57
2023/09/07 09:02:12;;;;;;;7.95;3.17;;;;;;;;;;10409544;28;20024;-58
2023/09/07 09:07:13;;;;;;;5.63;2.90;;;;;;;;;;10409221;28;20033;-53
2023/09/07 09:12:13;;;;;;;6.47;2.58;;;;;;;;;;10409031;28;20388;-55
2023/09/07 09:17:15;;;;;;;6.22;2.75;;;;;;;;;;10409243;28;20032;-50
2023/09/07 09:22:16;;;;;;;6.30;2.35;;;;;;;;;;10407166;28;20032;-57
2023/09/07 09:27:17;;;;;;;5.38;2.10;;;;;;;;;;10407972;28;20028;-59
2023/09/07 09:32:19;;;;;;;7.35;2.55;;;;;;;;;;10406601;28;20037;-51
2023/09/07 09:37:20;;;;;;;6.30;2.60;;;;;;;;;;10407441;28;20033;-50
2023/09/07 09:42:21;;;;;;;5.18;2.80;;;;;;;;;;10405591;28;20032;-47
2023/09/07 09:47:22;;;;;;;6.05;2.53;;;;;;;;;;10409211;28;20025;-47
2023/09/07 09:52:24;;;;;;;3.92;2.60;;;;;;;;;;10407562;28;20041;-46
2023/09/07 09:57:25;;;;;;;6.75;2.58;;;;;;;;;;10406073;28;20104;-55
2023/09/07 10:02:26;;;;;;;5.90;2.67;;;;;;;;;;10405823;28;20079;-49
2023/09/07 10:07:47;;;;;;;4.47;2.42;;;;;;;;;;10406813;28;20304;-46
2023/09/07 10:12:55;;;;;;;5.22;2.70;;;;;;;;;;10406239;28;20034;-45
2023/09/07 10:18:16;;;;;;;3.13;2.38;;;;;;;;;;10406831;28;20022;-45
2023/09/07 10:23:17;;;;;;;5.90;2.70;;;;;;;;;;10401411;28;20018;-46
2023/09/07 10:28:25;;;;;;;5.13;2.85;;;;;;;;;;10406827;28;20025;-55
2023/09/07 10:33:26;;;;;;;3.60;2.60;;;;;;;;;;10405455;28;20473;-56
2023/09/07 10:38:27;;;;;;;5.03;2.47;;;;;;;;;;10405219;28;20025;-57
2023/09/07 10:43:31;;;;;;;2.78;2.08;;;;;;;;;;10404291;28;20129;-59
2023/09/07 10:48:33;;;;;;;3.65;2.38;;;;;;;;;;10393738;28;20064;-56
2023/09/07 10:53:34;;;;;;;9.50;2.60;;;;;;;;;;10403730;28;20057;-58
2023/09/07 10:58:40;;;;;;;4.95;2.30;;;;;;;;;;10405220;28;20533;-59
2023/09/07 11:03:41;;;;;;;5.53;2.70;;;;;;;;;;10404592;28;20069;-58
2023/09/07 11:08:41;;;;;;;2.83;2.45;;;;;;;;;;10406186;28;20388;-57
2023/09/07 11:13:42;;;;;;;3.72;2.35;;;;;;;;;;10405680;28;20036;-57
2023/09/07 11:18:46;;;;;;;6.18;2.60;;;;;;;;;;10404784;28;20028;-58
2023/09/07 11:23:46;;;;;;;7.28;2.60;;;;;;;;;;10403834;28;20485;-56
2023/09/07 11:28:47;;;;;;;2.75;2.50;;;;;;;;;;10403927;28;20053;-58
2023/09/07 11:33:49;;;;;;;2.25;2.05;;;;;;;;;;10405414;28;20049;-60
2023/09/07 11:38:49;;;;;;;8.07;2.42;;;;;;;;;;10411393;28;20378;-59
2023/09/07 11:43:50;;;;;;;7.15;2.80;;;;;;;;;;10411308;28;20041;-50
2023/09/07 11:48:50;;;;;;;6.07;3.08;;;;;;;;;;10412819;28;20029;-57
2023/09/07 11:53:51;;;;;;;5.38;2.47;;;;;;;;;;10411956;28;20083;-55
2023/09/07 11:58:52;;;;;;;10.68;2.75;;;;;;;;;;10412207;28;20029;-50
2023/09/07 12:03:52;;;;;;;4.68;2.40;;;;;;;;;;10411337;28;20044;-57
2023/09/07 12:09:01;;;;;;;4.40;2.67;;;;;;;;;;10400654;28;20096;-47
2023/09/07 12:14:01;;;;;;;4.18;2.55;;;;;;;;;;10399023;28;20033;-46
2023/09/07 12:19:02;;;;;;;6.35;3.08;;;;;;;;;;10411357;28;20485;-45
2023/09/07 12:24:03;;;;;;;7.53;2.35;;;;;;;;;;10410525;28;20044;-46
2023/09/07 12:29:04;;;;;;;5.38;2.47;;;;;;;;;;10410469;28;20030;-46
2023/09/07 12:34:05;;;;;;;6.47;2.65;;;;;;;;;;10409088;28;20037;-47
2023/09/07 12:39:05;;;;;;;4.63;2.80;;;;;;;;;;10410162;28;20029;-46
2023/09/07 12:44:06;;;;;;;8.18;2.83;;;;;;;;;;10408184;28;20378;-46
2023/09/07 12:49:06;;;;;;;7.75;2.70;;;;;;;;;;10409427;28;20025;-46
2023/09/07 12:54:07;;;;;;;3.58;2.70;;;;;;;;;;10409329;28;20492;-48
2023/09/07 12:59:08;;;;;;;4.30;2.40;;;;;;;;;;10410314;28;20390;-47
2023/09/07 13:04:08;;;;;;;7.93;2.55;;;;;;;;;;10410068;28;20048;-47
2023/09/07 13:09:09;;;;;;;8.27;2.55;;;;;;;;;;10409012;28;20045;-45
2023/09/07 13:14:10;;;;;;;6.80;2.95;;;;;;;;;;10410029;28;20499;-46
2023/09/07 13:19:11;;;;;;;4.25;2.50;;;;;;;;;;10408330;28;20040;-45
2023/09/07 13:24:11;;;;;;;6.22;2.83;;;;;;;;;;10407241;28;20033;-47
2023/09/07 13:29:12;;;;;;;21.98;3.38;;;;;;;;;;10409175;28;20381;-51
2023/09/07 13:34:12;;;;;;;32.63;4.20;;;;;;;;;;10407162;28;20064;-51
2023/09/07 13:39:13;;;;;;;36.05;4.60;;;;;;;;;;10407447;28;20021;-46
2023/09/07 13:44:17;;;;;;;25.92;4.05;;;;;;;;;;10406734;28;20041;-49
2023/09/07 13:49:17;;;;;;;10.60;3.17;;;;;;;;;;10407140;28;20033;-52
2023/09/07 13:54:18;;;;;;;15.88;3.45;;;;;;;;;;10407375;28;20028;-53
2023/09/07 13:59:18;;;;;;;8.30;2.75;;;;;;;;;;10406107;28;20060;-59
2023/09/07 14:04:19;;;;;;;10.80;3.40;;;;;;;;;;10407600;28;20091;-49
2023/09/07 14:09:23;;;;;;;10.35;3.47;;;;;;;;;;10406116;28;20045;-49
2023/09/07 14:14:23;;;;;;;10.90;3.42;;;;;;;;;;10404911;28;20041;-49
2023/09/07 14:19:24;;;;;;;5.38;2.67;;;;;;;;;;10405798;28;20049;-49
2023/09/07 14:24:25;;;;;;;8.40;2.78;;;;;;;;;;10404600;28;20037;-49
2023/09/07 14:29:27;;;;;;;6.57;3.05;;;;;;;;;;10405080;28;20381;-49
2023/09/07 14:34:27;;;;;;;13.57;2.25;;;;;;;;;;10405209;28;20025;-56
2023/09/07 14:39:28;;;;;;;8.40;3.15;;;;;;;;;;10406872;28;20033;-52
2023/09/07 14:44:29;;;;;;;11.80;2.55;;;;;;;;;;10392999;28;20276;-48
2023/09/07 14:49:29;;;;;;;15.80;3.38;;;;;;;;;;10405740;28;20087;-54
2023/09/07 14:54:30;;;;;;;5.20;2.70;;;;;;;;;;10406681;28;20325;-58
2023/09/07 14:59:30;;;;;;;7.75;2.97;;;;;;;;;;10406356;28;20388;-54
2023/09/07 15:04:31;;;;;;;8.25;2.65;;;;;;;;;;10406326;28;20382;-50
2023/09/07 15:09:32;;;;;;;8.95;2.90;;;;;;;;;;10408817;28;20105;-47
2023/09/07 15:14:33;;;;;;;5.90;2.72;;;;;;;;;;10414139;28;20029;-48
2023/09/07 15:19:34;;;;;;;4.43;2.78;;;;;;;;;;10415275;28;20029;-48
2023/09/07 15:24:34;;;;;;;5.05;2.78;;;;;;;;;;10413221;28;20092;-47
2023/09/07 15:29:35;;;;;;;7.28;2.53;;;;;;;;;;10412795;28;20331;-48
2023/09/07 15:34:35;;;;;;;11.13;2.70;;;;;;;;;;10413785;28;20083;-49
2023/09/07 15:39:36;;;;;;;4.20;2.70;;;;;;;;;;10413038;28;20024;-49
2023/09/07 15:44:37;;;;;;;8.68;2.75;;;;;;;;;;10413135;28;20045;-48
2023/09/07 15:49:37;;;;;;;5.45;2.78;;;;;;;;;;10412893;28;20030;-48
2023/09/07 15:54:38;;;;;;;8.98;3.08;;;;;;;;;;10411776;28;20588;-47
2023/09/07 15:59:38;;;;;;;5.70;2.90;;;;;;;;;;10411125;28;20378;-49
2023/09/07 16:04:39;;;;;;;5.85;2.83;;;;;;;;;;10412171;28;20436;-48
2023/09/07 16:09:40;;;;;;;4.05;2.72;;;;;;;;;;10410169;28;20481;-48
2023/09/07 16:14:41;;;;;;;3.50;2.60;;;;;;;;;;10411126;28;20482;-51
2023/09/07 16:19:42;;;;;;;3.08;2.75;;;;;;;;;;10409349;28;20033;-52
2023/09/07 16:24:43;;;;;;;4.63;2.58;;;;;;;;;;10410427;28;20025;-50
2023/09/07 16:29:44;;;;;;;6.78;2.90;;;;;;;;;;10409857;28;20056;-56
2023/09/07 16:34:45;;;;;;;3.50;3.03;;;;;;;;;;10407728;28;20034;-52
2023/09/07 16:39:47;;;;;;;7.45;3.03;;;;;;;;;;10405467;28;20050;-49
2023/09/07 16:44:54;;;;;;;5.47;2.80;;;;;;;;;;10408878;28;20045;-50
2023/09/07 16:49:54;;;;;;;4.70;2.80;;;;;;;;;;10398271;28;20434;-51
2023/09/07 16:54:55;;;;;;;6.55;2.67;;;;;;;;;;10396730;28;20086;-47
2023/09/07 16:59:55;;;;;;;4.72;2.95;;;;;;;;;;10388281;28;20041;-47
2023/09/07 17:04:56;;;;;;;4.85;3.22;;;;;;;;;;10404227;28;20056;-47
2023/09/07 17:09:57;;;;;;;5.68;2.80;;;;;;;;;;10409107;28;20362;-47
2023/09/07 17:14:59;;;;;;;7.03;2.88;;;;;;;;;;10407901;28;20030;-47
2023/09/07 17:20:00;;;;;;;7.28;2.38;;;;;;;;;;10408617;28;20033;-47
2023/09/07 17:25:01;;;;;;;5.55;2.95;;;;;;;;;;10407704;28;20029;-47
2023/09/07 17:30:01;;;;;;;4.90;2.63;;;;;;;;;;10406328;28;20025;-47
2023/09/07 17:35:06;;;;;;;4.43;2.80;;;;;;;;;;10407485;28;20405;-47
2023/09/07 17:40:09;;;;;;;2.80;2.47;;;;;;;;;;10407427;28;20048;-47
2023/09/07 17:45:10;;;;;;;3.13;2.83;;;;;;;;;;10402614;28;20054;-48
2023/09/07 17:50:11;;;;;;;3.92;2.63;;;;;;;;;;10397957;28;20036;-47
2023/09/07 17:55:12;;;;;;;5.95;2.55;;;;;;;;;;10407689;28;20409;-49
2023/09/07 18:00:13;;;;;;;3.42;2.47;;;;;;;;;;10395534;28;20030;-48
2023/09/07 18:05:18;;;;;;;4.00;2.67;;;;;;;;;;10405788;28;20526;-48
2023/09/07 18:10:19;;;;;;;4.10;2.78;;;;;;;;;;10394273;28;20033;-47
2023/09/07 18:15:19;;;;;;;3.97;2.40;;;;;;;;;;10406131;28;20389;-48
2023/09/07 18:20:20;;;;;;;5.47;2.90;;;;;;;;;;10391432;28;20033;-48
2023/09/07 18:25:21;;;;;;;3.80;2.58;;;;;;;;;;10404369;28;20017;-48
2023/09/07 18:30:22;;;;;;;4.85;2.75;;;;;;;;;;10404137;28;20084;-52
2023/09/07 18:35:22;;;;;;;7.80;2.90;;;;;;;;;;10403665;28;20029;-55
2023/09/07 18:40:23;;;;;;;3.50;2.75;;;;;;;;;;10401345;28;20037;-49
2023/09/07 18:45:28;;;;;;;4.50;2.85;;;;;;;;;;10403769;28;20164;-48
2023/09/07 18:50:28;;;;;;;3.45;2.70;;;;;;;;;;10404107;28;20033;-47
2023/09/07 18:55:29;;;;;;;6.40;3.33;;;;;;;;;;10401188;28;20038;-53
2023/09/07 19:00:29;;;;;;;4.03;3.00;;;;;;;;;;10403895;28;20041;-48
2023/09/07 19:05:30;;;;;;;5.85;3.38;;;;;;;;;;10391205;28;20050;-48
2023/09/07 19:10:31;;;;;;;6.15;3.50;;;;;;;;;;10392694;28;20495;-48
2023/09/07 19:15:31;;;;;;;5.60;3.65;;;;;;;;;;10391973;28;20041;-48
2023/09/07 19:20:32;;;;;;;7.85;4.15;;;;;;;;;;10400975;28;20492;-47
2023/09/07 19:25:33;;;;;;;5.68;4.07;;;;;;;;;;10396550;28;20041;-47
2023/09/07 19:30:35;;;;;;;10.00;3.60;;;;;;;;;;10391700;28;20142;-49
2023/09/07 19:35:35;;;;;;;4.78;3.60;;;;;;;;;;10394555;28;20041;-47
2023/09/07 19:40:36;;;;;;;5.95;3.30;;;;;;;;;;10394484;28;20029;-47
2023/09/07 19:45:37;;;;;;;8.32;3.70;;;;;;;;;;10402584;28;20037;-47
2023/09/07 19:50:37;;;;;;;7.95;4.00;;;;;;;;;;10396914;28;20088;-47
2023/09/07 19:55:38;;;;;;;9.40;4.18;;;;;;;;;;10400673;28;20037;-47
2023/09/07 20:00:38;;;;;;;8.93;4.10;;;;;;;;;;10400423;28;20029;-47
2023/09/07 20:05:39;;;;;;;11.60;4.70;;;;;;;;;;10403959;28;20029;-47
2023/09/07 20:10:39;;;;;;;7.10;4.53;;;;;;;;;;10391231;28;20022;-46
2023/09/07 20:15:40;;;;;;;8.77;4.28;;;;;;;;;;10405544;28;20037;-47
2023/09/07 20:20:41;;;;;;;7.88;4.13;;;;;;;;;;10400364;28;20029;-46
2023/09/07 20:25:41;;;;;;;8.77;4.15;;;;;;;;;;10406405;28;20025;-47
2023/09/07 20:30:42;;;;;;;11.32;4.43;;;;;;;;;;10409881;28;20388;-47
2023/09/07 20:35:43;;;;;;;14.18;4.15;;;;;;;;;;10396608;28;20075;-46
2023/09/07 20:40:44;;;;;;;5.85;4.15;;;;;;;;;;10401541;28;20029;-47
2023/09/07 20:45:44;;;;;;;8.27;4.18;;;;;;;;;;10402826;28;20392;-46
2023/09/07 20:50:45;;;;;;;5.82;4.32;;;;;;;;;;10402861;28;20053;-47
2023/09/07 20:55:47;;;;;;;10.02;4.55;;;;;;;;;;10395677;28;20033;-46
2023/09/07 21:00:48;;;;;;;6.90;4.43;;;;;;;;;;10405289;28;20526;-47
2023/09/07 21:05:50;;;;;;;7.88;4.75;;;;;;;;;;10402395;28;20033;-48
2023/09/07 21:10:50;;;;;;;7.30;4.10;;;;;;;;;;10396772;28;20033;-47
2023/09/07 21:15:51;;;;;;;6.93;4.22;;;;;;;;;;10402868;28;20034;-48
2023/09/07 21:20:52;;;;;;;9.13;4.63;;;;;;;;;;10405796;28;20040;-46
2023/09/07 21:25:52;;;;;;;16.10;6.13;;;;;;;;;;10406454;28;20236;-46
2023/09/07 21:30:53;;;;;;;12.95;5.43;;;;;;;;;;10403593;28;20095;-45
2023/09/07 21:35:53;;;;;;;11.50;5.32;;;;;;;;;;10404353;28;20033;-45
2023/09/07 21:40:54;;;;;;;9.63;4.95;;;;;;;;;;10400997;28;20041;-47
2023/09/07 21:45:55;;;;;;;11.32;5.30;;;;;;;;;;10407411;28;20045;-47
2023/09/07 21:50:55;;;;;;;11.10;4.88;;;;;;;;;;10409728;28;20115;-46
2023/09/07 21:55:56;;;;;;;9.73;4.70;;;;;;;;;;10403073;28;20485;-46
2023/09/07 22:00:56;;;;;;;12.90;4.90;;;;;;;;;;10407227;28;20018;-51
2023/09/07 22:05:57;;;;;;;8.35;4.43;;;;;;;;;;10405655;28;20025;-46
2023/09/07 22:10:58;;;;;;;9.35;4.57;;;;;;;;;;10405269;28;20218;-46
2023/09/07 22:15:59;;;;;;;7.32;3.80;;;;;;;;;;10401365;28;20562;-47
2023/09/07 22:20:59;;;;;;;11.40;4.88;;;;;;;;;;10392278;28;20029;-47
2023/09/07 22:26:00;;;;;;;11.75;4.43;;;;;;;;;;10399505;28;20393;-46
2023/09/07 22:31:00;;;;;;;9.68;4.65;;;;;;;;;;10397502;28;20072;-46
2023/09/07 22:36:01;;;;;;;9.05;4.32;;;;;;;;;;10404993;28;20037;-53
2023/09/07 22:41:02;;;;;;;8.15;4.45;;;;;;;;;;10401329;28;20033;-46
2023/09/07 22:46:02;;;;;;;9.43;4.30;;;;;;;;;;10401689;28;20049;-45
2023/09/07 22:51:04;;;;;;;6.15;3.88;;;;;;;;;;10387530;28;20029;-51
2023/09/07 22:56:05;;;;;;;7.88;4.10;;;;;;;;;;10406128;28;20022;-47
2023/09/07 23:01:05;;;;;;;6.85;4.25;;;;;;;;;;10404671;28;20112;-47
2023/09/07 23:06:06;;;;;;;9.60;3.90;;;;;;;;;;10391280;28;20063;-50
2023/09/07 23:11:11;;;;;;;8.02;4.00;;;;;;;;;;10392185;28;20465;-47
2023/09/07 23:16:12;;;;;;;8.68;3.95;;;;;;;;;;10396829;28;20113;-46
2023/09/07 23:21:13;;;;;;;7.00;4.10;;;;;;;;;;10402415;28;20033;-47
2023/09/07 23:26:14;;;;;;;5.50;3.70;;;;;;;;;;10405103;28;20025;-47
2023/09/07 23:31:15;;;;;;;5.32;3.25;;;;;;;;;;10428702;28;20032;-47
2023/09/07 23:36:17;;;;;;;6.60;3.88;;;;;;;;;;10405074;28;20457;-46
2023/09/07 23:41:18;;;;;;;5.13;3.20;;;;;;;;;;10411789;28;20128;-46
2023/09/07 23:46:18;;;;;;;5.13;3.30;;;;;;;;;;10412776;28;20041;-46
2023/09/07 23:51:19;;;;;;;10.35;4.38;;;;;;;;;;10409986;28;20045;-46
2023/09/07 23:56:19;;;;;;;7.28;3.78;;;;;;;;;;10413443;28;20033;-46
